Time;durP1;ratioP1;P1;durP2;ratioP2;P2;SDS_P1;SDS_P2;PMS_P1;PMS_P2;Temp;Humidity;BMP_temperature;BMP_pressure;BME280_temperature;BME280_humidity;BME280_pressure;Samples;Min_cycle;Max_cycle;Signal;HPM_P1;HPM_P2
2021/07/27 00:01:17;;;;;;;11.73;8.43;;;;;;;19.41;100.00;100590.84;4998790;28;20481;-57
2021/07/27 00:03:45;;;;;;;19.03;9.10;;;;;;;19.40;100.00;100590.84;4994358;28;20491;-58
2021/07/27 00:06:12;;;;;;;11.33;8.07;;;;;;;19.42;100.00;100589.97;4998901;28;20494;-55
2021/07/27 00:08:40;;;;;;;15.23;9.03;;;;;;;19.65;100.00;100580.41;4995516;28;20486;-58
2021/07/27 00:11:09;;;;;;;11.70;8.83;;;;;;;19.80;100.00;100577.81;4999140;28;20509;-57
2021/07/27 00:13:40;;;;;;;12.37;8.10;;;;;;;19.79;100.00;100573.44;4994602;28;20490;-58
2021/07/27 00:16:08;;;;;;;42.10;26.83;;;;;;;20.00;100.00;100579.56;4998565;28;20959;-56
2021/07/27 00:18:36;;;;;;;30.37;19.43;;;;;;;19.95;100.00;100579.59;4995558;28;20481;-55
2021/07/27 00:21:04;;;;;;;15.70;10.00;;;;;;;20.01;100.00;100578.72;4998977;28;20492;-56
2021/07/27 00:23:32;;;;;;;30.47;17.63;;;;;;;19.95;100.00;100570.84;4994863;28;20506;-56
2021/07/27 00:26:00;;;;;;;23.73;16.53;;;;;;;19.98;100.00;100583.09;4998146;28;20484;-57
2021/07/27 00:28:28;;;;;;;13.47;9.80;;;;;;;20.13;100.00;100577.84;4994946;28;20507;-58
2021/07/27 00:30:57;;;;;;;18.17;9.93;;;;;;;20.18;100.00;100569.97;4998551;28;20859;-54
2021/07/27 00:33:24;;;;;;;15.17;10.17;;;;;;;20.24;100.00;100564.72;4995054;28;20479;-52
2021/07/27 00:35:52;;;;;;;14.00;9.70;;;;;;;20.35;100.00;100556.84;4998139;28;20460;-56
2021/07/27 00:38:21;;;;;;;15.30;10.80;;;;;;;20.03;100.00;100558.66;4992552;28;20462;-56
2021/07/27 00:40:49;;;;;;;18.30;12.77;;;;;;;20.09;100.00;100556.03;4998289;28;20563;-57
2021/07/27 00:43:19;;;;;;;13.60;9.87;;;;;;;19.99;100.00;100553.41;4992050;28;20462;-58
2021/07/27 00:45:47;;;;;;;13.87;9.60;;;;;;;19.95;100.00;100560.38;4997897;28;20496;-57
2021/07/27 00:48:16;;;;;;;13.90;10.20;;;;;;;20.05;100.00;100558.66;4991902;28;20464;-54
2021/07/27 00:50:44;;;;;;;14.17;9.90;;;;;;;20.27;100.00;100564.75;4997680;28;20557;-56
2021/07/27 00:53:14;;;;;;;14.37;9.87;;;;;;;20.37;100.00;100560.34;4995503;28;20981;-58
2021/07/27 00:55:42;;;;;;;14.27;9.27;;;;;;;20.27;100.00;100559.50;4990267;28;20476;-57
2021/07/27 00:58:09;;;;;;;13.47;9.40;;;;;;;20.16;100.00;100556.03;4998204;28;20769;-58
2021/07/27 01:00:37;;;;;;;13.00;9.87;;;;;;;20.23;100.00;100552.50;4997144;28;20477;-56
2021/07/27 01:03:05;;;;;;;14.10;8.87;;;;;;;19.78;100.00;100556.00;4997777;28;20522;-57
2021/07/27 01:05:34;;;;;;;12.00;9.03;;;;;;;19.83;100.00;100550.75;4992769;28;20492;-56
2021/07/27 01:08:02;;;;;;;17.40;12.70;;;;;;;19.75;100.00;100558.63;4997391;28;20898;-56
2021/07/27 01:10:29;;;;;;;18.73;12.27;;;;;;;19.81;100.00;100552.50;4994311;28;20934;-58
2021/07/27 01:12:57;;;;;;;15.37;10.60;;;;;;;20.04;100.00;100549.91;4997982;28;20923;-55
2021/07/27 01:15:25;;;;;;;42.43;26.80;;;;;;;19.90;100.00;100555.13;4989841;28;20494;-55
2021/07/27 01:17:59;;;;;;;17.40;11.37;;;;;;;19.99;100.00;100556.03;4997310;28;20471;-56
2021/07/27 01:20:33;;;;;;;21.17;15.20;;;;;;;20.02;100.00;100559.53;4994589;28;20485;-58
2021/07/27 01:39:37;;;;;;;16.03;9.90;;;;;;;19.96;100.00;100555.16;4986707;28;20486;-57
2021/07/27 01:42:08;;;;;;;14.00;10.97;;;;;;;20.17;100.00;100557.75;5001715;28;20487;-55
2021/07/27 01:44:43;;;;;;;13.63;9.67;;;;;;;19.88;100.00;100550.78;4990770;28;20569;-55
2021/07/27 01:47:13;;;;;;;12.53;9.63;;;;;;;19.99;100.00;100553.41;4997213;28;20496;-58
2021/07/27 01:49:41;;;;;;;13.70;10.00;;;;;;;20.10;100.00;100557.75;4993801;28;20487;-57
2021/07/27 01:52:12;;;;;;;15.83;11.13;;;;;;;20.09;100.00;100557.75;4997068;28;20595;-51
2021/07/27 01:54:58;;;;;;;16.50;11.93;;;;;;;20.08;100.00;100556.91;4993022;28;20499;-58
2021/07/27 01:57:29;;;;;;;16.20;10.97;;;;;;;20.08;100.00;100545.53;4996851;28;20451;-55
2021/07/27 02:00:16;;;;;;;16.17;12.20;;;;;;;19.89;100.00;100560.38;4989859;28;20934;-56
2021/07/27 02:02:43;;;;;;;16.90;11.70;;;;;;;19.92;100.00;100558.63;4997104;28;20775;-56
2021/07/27 02:05:15;;;;;;;15.90;11.97;;;;;;;19.64;100.00;100568.22;4992318;28;20992;-56
2021/07/27 02:08:00;;;;;;;15.83;11.33;;;;;;;19.30;100.00;100575.09;4996095;28;20470;-56
2021/07/27 02:10:30;;;;;;;17.23;11.77;;;;;;;19.51;100.00;100569.91;4990437;28;20481;-58
2021/07/27 02:13:01;;;;;;;16.60;11.37;;;;;;;19.58;100.00;100576.06;4996557;28;20472;-52
2021/07/27 02:15:39;;;;;;;16.37;10.27;;;;;;;19.37;100.00;100576.00;4990035;28;21011;-58
2021/07/27 02:18:07;;;;;;;15.10;10.80;;;;;;;19.39;100.00;100576.88;4996213;28;20550;-53
2021/07/27 02:20:34;;;;;;;17.33;11.40;;;;;;;19.32;100.00;100584.72;4992734;28;20489;-57
2021/07/27 02:23:03;;;;;;;16.17;10.57;;;;;;;19.24;100.00;100590.81;4996752;28;20464;-53
2021/07/27 02:25:32;;;;;;;17.57;10.83;;;;;;;19.25;100.00;100586.44;4990064;28;20491;-57
2021/07/27 02:28:00;;;;;;;16.93;11.07;;;;;;;19.31;100.00;100583.84;4996672;28;20763;-57
2021/07/27 02:30:29;;;;;;;15.80;11.00;;;;;;;19.02;100.00;100598.56;4992389;28;20490;-56
2021/07/27 02:32:57;;;;;;;16.20;10.70;;;;;;;18.84;100.00;100591.47;4996386;28;20454;-55
2021/07/27 02:35:25;;;;;;;16.60;12.00;;;;;;;18.86;100.00;100594.06;4998179;28;20497;-57
2021/07/27 02:37:52;;;;;;;15.60;10.53;;;;;;;18.86;100.00;100591.47;4996333;28;20463;-56
2021/07/27 02:40:20;;;;;;;16.93;11.03;;;;;;;18.75;100.00;100592.31;4991892;28;20487;-56
2021/07/27 02:42:49;;;;;;;14.00;10.50;;;;;;;18.85;100.00;100590.59;4996312;28;20778;-55
2021/07/27 02:45:22;;;;;;;20.53;11.80;;;;;;;18.75;100.00;100597.53;4995902;28;20500;-59
2021/07/27 02:47:50;;;;;;;16.50;11.10;;;;;;;18.76;100.00;100580.09;4996252;28;20488;-56
2021/07/27 02:50:17;;;;;;;20.93;11.57;;;;;;;18.79;100.00;100584.47;4989264;28;20482;-58
2021/07/27 02:52:45;;;;;;;19.10;12.13;;;;;;;18.81;100.00;100582.75;4996061;28;20496;-56
2021/07/27 02:55:13;;;;;;;13.90;11.47;;;;;;;18.87;100.00;100595.84;4983597;28;20490;-59
2021/07/27 02:57:41;;;;;;;16.20;11.20;;;;;;;18.87;100.00;100583.63;4995698;28;20898;-59
2021/07/27 03:00:10;;;;;;;16.13;12.50;;;;;;;18.86;100.00;100588.84;4989141;28;20487;-55
2021/07/27 03:02:39;;;;;;;19.27;12.33;;;;;;;18.86;100.00;100594.97;4996179;28;20459;-59
2021/07/27 03:05:07;;;;;;;19.30;13.03;;;;;;;18.85;100.00;100592.34;4991756;28;20492;-58
2021/07/27 03:07:47;;;;;;;17.13;12.30;;;;;;;18.82;100.00;100589.72;4995689;28;20494;-57
2021/07/27 03:10:18;;;;;;;17.70;12.70;;;;;;;18.78;100.00;100591.44;4991182;28;20514;-57
2021/07/27 03:12:47;;;;;;;16.60;12.60;;;;;;;18.79;100.00;100587.06;4995624;28;20478;-55
2021/07/27 03:15:16;;;;;;;16.90;12.03;;;;;;;18.86;100.00;100594.06;4991821;28;20485;-58
2021/07/27 03:17:44;;;;;;;15.50;11.93;;;;;;;18.83;100.00;100588.84;4997475;28;20471;-57
2021/07/27 03:20:15;;;;;;;16.93;12.97;;;;;;;18.79;100.00;100589.69;4996323;28;20498;-56
2021/07/27 03:22:42;;;;;;;17.47;13.90;;;;;;;18.75;100.00;100597.53;4999351;28;20473;-57
2021/07/27 03:25:14;;;;;;;16.80;12.90;;;;;;;18.82;100.00;100602.78;4996350;28;20485;-59
2021/07/27 03:27:42;;;;;;;16.37;13.03;;;;;;;18.79;100.00;100592.31;4999742;28;20487;-57
2021/07/27 03:30:10;;;;;;;17.90;13.60;;;;;;;18.75;100.00;100592.31;4995606;28;20497;-58
2021/07/27 03:32:39;;;;;;;18.63;13.60;;;;;;;18.63;100.00;100593.09;4999587;28;20460;-58
2021/07/27 03:35:08;;;;;;;19.53;12.40;;;;;;;18.68;100.00;100595.75;4996920;28;20486;-58
2021/07/27 03:37:35;;;;;;;20.47;12.97;;;;;;;18.56;100.00;100596.53;5001853;28;20917;-58
2021/07/27 03:40:03;;;;;;;15.87;12.57;;;;;;;18.62;100.00;100596.56;4992357;28;20493;-58
2021/07/27 03:42:31;;;;;;;16.43;13.40;;;;;;;18.62;100.00;100596.56;5001995;28;20468;-53
2021/07/27 03:44:59;;;;;;;14.30;12.50;;;;;;;18.71;100.00;100602.72;4988777;28;20488;-56
2021/07/27 03:47:27;;;;;;;18.70;13.13;;;;;;;18.67;100.00;100601.81;4998660;28;20799;-59
2021/07/27 03:49:57;;;;;;;17.60;12.80;;;;;;;18.67;100.00;100600.97;4988191;28;20486;-56
2021/07/27 03:52:25;;;;;;;17.70;13.43;;;;;;;18.68;100.00;100606.19;4999463;28;20461;-59
2021/07/27 03:54:52;;;;;;;16.80;12.73;;;;;;;18.69;100.00;100601.84;4992705;28;20502;-57
2021/07/27 03:57:20;;;;;;;18.33;13.20;;;;;;;18.62;100.00;100601.78;4998560;28;20459;-55
2021/07/27 03:59:48;;;;;;;18.67;12.90;;;;;;;18.62;100.00;100606.16;4992678;28;20585;-55
2021/07/27 04:02:15;;;;;;;16.63;13.13;;;;;;;18.69;100.00;100597.50;4999152;28;20774;-56
2021/07/27 04:04:43;;;;;;;15.93;12.90;;;;;;;18.66;100.00;100597.47;4993015;28;20491;-58
2021/07/27 04:07:12;;;;;;;19.20;14.00;;;;;;;18.68;100.00;100589.63;4998878;28;20493;-57
2021/07/27 04:09:40;;;;;;;16.57;13.27;;;;;;;18.59;100.00;100601.78;4991863;28;20513;-58
2021/07/27 04:12:07;;;;;;;17.90;12.80;;;;;;;18.52;100.00;100609.56;4998860;28;20490;-57
2021/07/27 04:14:35;;;;;;;17.10;13.10;;;;;;;18.63;100.00;100610.53;4992629;28;20483;-55
2021/07/27 04:17:03;;;;;;;16.30;12.60;;;;;;;18.61;100.00;100609.66;4998339;28;21005;-58
2021/07/27 04:19:31;;;;;;;17.57;12.83;;;;;;;18.67;100.00;100611.41;4992523;28;20489;-58
2021/07/27 04:21:58;;;;;;;18.67;13.53;;;;;;;18.71;100.00;100608.81;4998607;28;20474;-56
2021/07/27 04:24:28;;;;;;;14.73;12.17;;;;;;;18.78;100.00;100606.25;4994986;28;20481;-54
2021/07/27 04:26:56;;;;;;;20.53;13.23;;;;;;;18.76;100.00;100609.72;4998385;28;20488;-56
2021/07/27 04:29:23;;;;;;;14.60;11.60;;;;;;;18.78;100.00;100606.25;4992604;28;20500;-56
2021/07/27 04:31:51;;;;;;;17.30;11.93;;;;;;;18.81;100.00;100616.72;4998748;28;20485;-57
2021/07/27 04:34:19;;;;;;;16.03;12.40;;;;;;;18.84;100.00;100601.94;4994029;28;20507;-58
2021/07/27 04:36:48;;;;;;;18.00;13.00;;;;;;;18.82;100.00;100608.00;4998283;28;20460;-57
2021/07/27 04:39:15;;;;;;;16.43;12.47;;;;;;;18.86;100.00;100610.63;4991840;28;20489;-55
2021/07/27 04:41:44;;;;;;;18.70;13.57;;;;;;;18.78;100.00;100617.56;4998399;28;20484;-57
2021/07/27 04:44:12;;;;;;;13.90;10.90;;;;;;;18.85;100.00;100616.75;4996106;28;20505;-55
2021/07/27 04:46:39;;;;;;;17.50;12.33;;;;;;;18.94;100.00;100618.53;4998341;28;20790;-58
2021/07/27 04:49:07;;;;;;;17.57;11.70;;;;;;;18.99;100.00;100615.94;4995437;28;20477;-56
2021/07/27 04:51:35;;;;;;;20.13;12.60;;;;;;;18.92;100.00;100615.00;4998415;28;20484;-57
2021/07/27 04:54:04;;;;;;;18.23;11.10;;;;;;;19.03;100.00;100618.59;4991268;28;20488;-57
2021/07/27 04:56:32;;;;;;;17.07;11.77;;;;;;;19.26;100.00;100620.44;4998247;28;20558;-57
2021/07/27 04:59:02;;;;;;;16.17;11.50;;;;;;;19.13;100.00;100614.28;4994195;28;20995;-59
2021/07/27 05:01:29;;;;;;;15.87;11.67;;;;;;;19.34;100.00;100622.19;4998030;28;20972;-59
2021/07/27 05:03:57;;;;;;;19.50;12.60;;;;;;;19.33;100.00;100620.47;4994332;28;20514;-57
2021/07/27 05:06:25;;;;;;;24.73;12.67;;;;;;;19.30;100.00;100619.56;4997874;28;20465;-58
2021/07/27 05:08:52;;;;;;;18.80;12.27;;;;;;;19.32;100.00;100618.72;4994045;28;20565;-58
2021/07/27 05:11:20;;;;;;;16.50;11.30;;;;;;;19.34;100.00;100623.09;4997082;28;20799;-60
2021/07/27 05:13:47;;;;;;;14.80;11.03;;;;;;;19.23;100.00;100623.03;4993793;28;20509;-57
2021/07/27 05:16:19;;;;;;;18.30;11.90;;;;;;;19.35;100.00;100623.94;4997889;28;20776;-57
2021/07/27 05:18:47;;;;;;;15.40;11.53;;;;;;;19.38;100.00;100626.59;4994056;28;20530;-59
2021/07/27 05:21:15;;;;;;;20.30;12.23;;;;;;;19.27;100.00;100619.56;4997508;28;20479;-58
2021/07/27 05:23:42;;;;;;;15.63;11.43;;;;;;;19.31;100.00;100623.06;4995042;28;20472;-56
2021/07/27 05:26:10;;;;;;;20.03;12.70;;;;;;;19.27;100.00;100624.78;4997358;28;20469;-58
2021/07/27 05:28:37;;;;;;;19.13;12.47;;;;;;;19.34;100.00;100619.59;4993415;28;20481;-59
2021/07/27 05:31:06;;;;;;;15.03;11.03;;;;;;;19.39;100.00;100617.88;4996877;28;20576;-58
2021/07/27 05:33:34;;;;;;;17.63;11.10;;;;;;;19.47;100.00;100623.97;4994952;28;20477;-59
2021/07/27 05:36:02;;;;;;;18.40;11.80;;;;;;;19.60;100.00;100616.16;4998227;28;20466;-59
2021/07/27 05:38:29;;;;;;;16.40;11.33;;;;;;;19.73;100.00;100612.69;5012322;28;20458;-60
2021/07/27 05:40:57;;;;;;;16.50;12.40;;;;;;;19.76;100.00;100615.31;5016624;28;20484;-56
2021/07/27 05:43:25;;;;;;;18.60;12.00;;;;;;;19.76;100.00;100607.47;5014415;28;20778;-59
2021/07/27 05:45:52;;;;;;;21.43;14.77;;;;;;;19.87;100.00;100598.75;5015986;28;20460;-57
2021/07/27 05:48:20;;;;;;;21.27;12.70;;;;;;;19.84;100.00;100615.31;5010050;28;20484;-57
2021/07/27 05:50:50;;;;;;;19.37;12.47;;;;;;;19.88;100.00;100608.38;5016127;28;20487;-59
2021/07/27 05:53:17;;;;;;;18.10;13.27;;;;;;;19.83;100.00;100611.84;5013202;28;20894;-60
2021/07/27 05:55:45;;;;;;;21.67;13.83;;;;;;;20.01;100.00;100604.91;5016246;28;20493;-59
2021/07/27 05:58:12;;;;;;;20.63;13.20;;;;;;;19.99;100.00;100616.25;5012693;28;20464;-56
2021/07/27 06:00:40;;;;;;;22.80;15.20;;;;;;;19.83;100.00;100617.06;5016241;28;20493;-57
2021/07/27 06:03:07;;;;;;;25.47;15.30;;;;;;;19.68;100.00;100617.03;5016362;28;20897;-58
2021/07/27 06:05:35;;;;;;;25.07;17.43;;;;;;;19.62;100.00;100615.28;5011995;28;20572;-59
2021/07/27 06:08:05;;;;;;;23.90;15.73;;;;;;;19.69;100.00;100613.59;5016111;28;20511;-57
2021/07/27 06:10:32;;;;;;;25.93;16.37;;;;;;;19.71;100.00;100614.44;5012841;28;20563;-60
2021/07/27 06:13:00;;;;;;;25.33;17.30;;;;;;;19.68;100.00;100614.41;5016453;28;20464;-57
2021/07/27 06:15:27;;;;;;;21.07;15.20;;;;;;;19.74;100.00;100610.97;5011946;28;20566;-59
2021/07/27 06:17:55;;;;;;;23.23;15.60;;;;;;;19.76;100.00;100609.22;5016557;28;20471;-57
2021/07/27 06:20:22;;;;;;;25.70;16.70;;;;;;;19.76;100.00;100611.81;5012738;28;20492;-57
2021/07/27 06:22:50;;;;;;;27.40;17.00;;;;;;;19.65;100.00;100622.28;5016317;28;20474;-56
2021/07/27 06:25:19;;;;;;;23.87;17.20;;;;;;;19.69;100.00;100621.44;5011558;28;20484;-56
2021/07/27 06:27:46;;;;;;;27.20;17.97;;;;;;;19.67;100.00;100631.00;5015484;28;20483;-59
2021/07/27 06:30:15;;;;;;;24.67;17.10;;;;;;;19.72;100.00;100626.66;5012860;28;20481;-58
2021/07/27 06:32:42;;;;;;;25.30;17.03;;;;;;;19.73;100.00;100630.16;5016117;28;20461;-58
2021/07/27 06:35:14;;;;;;;23.93;17.00;;;;;;;19.70;100.00;100629.25;5009404;28;20945;-57
2021/07/27 06:37:41;;;;;;;27.30;18.00;;;;;;;19.81;100.00;100631.91;5015660;28;20575;-59
2021/07/27 06:40:11;;;;;;;29.27;18.40;;;;;;;19.65;100.00;100627.50;5009575;28;21068;-57
2021/07/27 06:42:40;;;;;;;30.10;18.70;;;;;;;19.68;100.00;100628.41;5015405;28;20550;-57
2021/07/27 06:45:09;;;;;;;30.43;18.67;;;;;;;19.70;100.00;100633.63;5008652;28;20960;-59
2021/07/27 06:47:36;;;;;;;28.57;19.40;;;;;;;19.70;100.00;100637.13;5015378;28;20490;-60
2021/07/27 06:50:05;;;;;;;27.70;16.30;;;;;;;19.84;100.00;100637.16;5011611;28;20968;-57
2021/07/27 06:52:32;;;;;;;28.83;17.67;;;;;;;19.98;100.00;100635.47;5015195;28;20461;-57
2021/07/27 06:55:00;;;;;;;28.77;19.33;;;;;;;19.89;100.00;100636.28;5009144;28;20948;-58
2021/07/27 06:57:28;;;;;;;25.27;17.43;;;;;;;20.06;100.00;100634.56;5015002;28;20459;-55
2021/07/27 06:59:57;;;;;;;26.47;17.80;;;;;;;20.16;100.00;100638.09;5009312;28;20484;-59
2021/07/27 07:02:29;;;;;;;29.20;18.77;;;;;;;20.26;100.00;100631.09;5015611;28;20461;-59
2021/07/27 07:04:57;;;;;;;26.57;17.63;;;;;;;20.42;100.00;100636.31;5009075;28;20499;-60
2021/07/27 07:07:25;;;;;;;27.23;17.73;;;;;;;20.62;100.00;100631.91;5014966;28;20887;-58
2021/07/27 07:09:53;;;;;;;24.37;16.10;;;;;;;20.62;100.00;100629.28;5008814;28;20487;-59
2021/07/27 07:12:20;;;;;;;24.53;16.73;;;;;;;20.98;100.00;100631.84;5015787;28;20472;-60
2021/07/27 07:14:48;;;;;;;24.20;16.03;;;;;;;21.02;100.00;100633.59;5010069;28;20480;-60
2021/07/27 07:17:17;;;;;;;31.00;15.63;;;;;;;20.98;97.55;100630.97;5015334;28;20461;-60
2021/07/27 07:19:44;;;;;;;22.87;14.73;;;;;;;21.00;96.34;100626.59;5008946;28;20477;-60
2021/07/27 07:22:12;;;;;;;24.07;14.13;;;;;;;21.23;96.02;100623.88;5015394;28;20460;-59
2021/07/27 07:24:39;;;;;;;21.60;13.63;;;;;;;21.50;94.24;100623.75;5008860;28;20474;-58
2021/07/27 07:27:07;;;;;;;19.10;13.47;;;;;;;21.50;93.68;100618.50;5015090;28;20457;-59
2021/07/27 07:29:35;;;;;;;19.80;13.17;;;;;;;21.42;92.16;100613.28;5011456;28;20919;-59
2021/07/27 07:32:02;;;;;;;23.70;16.43;;;;;;;21.63;92.76;100624.56;5014935;28;20481;-59
2021/07/27 07:34:31;;;;;;;16.83;10.53;;;;;;;21.88;92.42;100624.44;5008978;28;20481;-60
2021/07/27 07:37:00;;;;;;;18.87;11.47;;;;;;;21.57;88.57;100625.44;5011712;28;20454;-61
2021/07/27 07:39:29;;;;;;;16.57;10.73;;;;;;;21.43;89.48;100622.94;5010459;28;20481;-59
2021/07/27 07:41:58;;;;;;;16.17;10.00;;;;;;;21.49;90.64;100627.25;5014838;28;20478;-60
2021/07/27 07:44:26;;;;;;;16.30;10.90;;;;;;;21.60;90.25;100625.44;5011676;28;20493;-58
2021/07/27 07:46:54;;;;;;;20.13;12.13;;;;;;;21.70;90.47;100627.13;5014795;28;20884;-59
2021/07/27 07:49:21;;;;;;;16.37;10.73;;;;;;;22.01;90.97;100641.81;5011349;28;21281;-59
2021/07/27 07:51:50;;;;;;;16.97;11.40;;;;;;;22.07;90.81;100628.66;5015135;28;20480;-60
2021/07/27 07:54:19;;;;;;;14.80;10.00;;;;;;;21.98;90.90;100632.22;5011438;28;20795;-60
2021/07/27 07:56:47;;;;;;;18.07;12.20;;;;;;;21.89;91.37;100634.88;5009264;28;20458;-60
2021/07/27 07:59:14;;;;;;;19.60;13.10;;;;;;;21.77;91.68;100627.97;4991289;28;20489;-59
2021/07/27 08:01:45;;;;;;;18.77;12.40;;;;;;;21.81;92.80;100634.09;4994478;28;20481;-60
2021/07/27 08:04:12;;;;;;;18.33;12.17;;;;;;;21.80;91.35;100629.72;5000955;28;20480;-59
2021/07/27 08:06:40;;;;;;;15.23;10.90;;;;;;;21.92;92.34;100636.63;5006887;28;20460;-59
2021/07/27 08:09:09;;;;;;;18.30;12.40;;;;;;;21.84;91.33;100628.81;5014349;28;20495;-57
2021/07/27 08:11:39;;;;;;;40.40;23.43;;;;;;;21.87;90.86;100627.91;5005012;28;20484;-59
2021/07/27 08:14:07;;;;;;;16.20;10.60;;;;;;;22.26;90.42;100631.13;4995207;28;20485;-58
2021/07/27 08:16:35;;;;;;;16.70;9.00;;;;;;;22.38;91.04;100632.75;4998552;28;20468;-54
2021/07/27 08:19:03;;;;;;;38.13;23.43;;;;;;;22.36;88.73;100631.91;4999378;28;20509;-58
2021/07/27 08:21:31;;;;;;;25.00;17.10;;;;;;;22.39;88.50;100621.34;5018439;28;20491;-58
2021/07/27 08:23:58;;;;;;;52.97;29.40;;;;;;;22.11;87.38;100630.34;5013730;28;20485;-58
2021/07/27 08:26:28;;;;;;;82.37;32.00;;;;;;;22.02;88.85;100643.56;5017565;28;20471;-59
2021/07/27 08:28:55;;;;;;;50.57;24.53;;;;;;;21.76;90.27;100635.88;5014432;28;20488;-59
2021/07/27 08:31:23;;;;;;;25.90;15.57;;;;;;;21.76;91.08;100636.75;5018222;28;20491;-58
2021/07/27 08:33:50;;;;;;;39.30;17.40;;;;;;;21.70;90.47;100644.66;5014711;28;20799;-58
2021/07/27 08:36:18;;;;;;;15.50;10.03;;;;;;;21.70;91.68;100645.53;5010857;28;20947;-57
2021/07/27 08:38:46;;;;;;;47.73;18.90;;;;;;;21.70;91.83;100647.28;4995121;28;20989;-59
2021/07/27 08:41:14;;;;;;;26.30;13.13;;;;;;;21.57;92.28;100649.94;4998261;28;20509;-59
2021/07/27 08:43:43;;;;;;;26.57;14.47;;;;;;;21.43;92.54;100659.66;4994759;28;20474;-57
2021/07/27 08:46:14;;;;;;;27.70;16.70;;;;;;;21.47;91.70;100652.66;4998141;28;20458;-59
2021/07/27 08:48:42;;;;;;;76.97;28.97;;;;;;;21.58;91.37;100661.31;4995152;28;20466;-56
2021/07/27 08:51:09;;;;;;;18.20;11.63;;;;;;;21.38;92.77;100666.69;4998328;28;20482;-59
2021/07/27 08:53:37;;;;;;;19.70;12.73;;;;;;;21.29;93.84;100673.69;4994339;28;20485;-60
2021/07/27 08:56:05;;;;;;;47.47;20.67;;;;;;;21.25;92.19;100671.09;4997589;28;20458;-56
2021/07/27 08:58:32;;;;;;;85.67;28.57;;;;;;;21.14;91.72;100677.28;4991564;28;20474;-59
2021/07/27 09:01:01;;;;;;;42.33;20.30;;;;;;;21.03;91.34;100672.03;4998194;28;20481;-59
2021/07/27 09:03:29;;;;;;;26.53;14.03;;;;;;;21.02;92.08;100680.78;4993858;28;20462;-59
2021/07/27 09:06:05;;;;;;;14.80;10.10;;;;;;;21.14;91.87;100669.41;4994314;28;20513;-58
2021/07/27 09:08:32;;;;;;;19.47;10.57;;;;;;;21.47;91.15;100668.38;4991938;28;20481;-58
2021/07/27 09:11:01;;;;;;;24.50;14.73;;;;;;;21.31;91.32;100671.06;5008649;28;20489;-59
2021/07/27 09:13:33;;;;;;;15.57;10.07;;;;;;;21.34;90.03;100680.69;5003853;28;20509;-59
2021/07/27 09:16:02;;;;;;;16.03;10.20;;;;;;;21.47;89.96;100671.00;4995256;28;20454;-57
2021/07/27 09:18:31;;;;;;;27.60;15.73;;;;;;;21.69;88.28;100677.03;4996412;28;20458;-59
2021/07/27 09:21:00;;;;;;;15.40;10.60;;;;;;;21.67;88.39;100674.41;4996227;28;20478;-59
2021/07/27 09:23:28;;;;;;;26.63;16.50;;;;;;;21.73;88.39;100680.53;4997844;28;20465;-56
2021/07/27 09:25:58;;;;;;;39.10;18.23;;;;;;;21.79;89.16;100672.63;4997873;28;20463;-59
2021/07/27 09:28:26;;;;;;;26.70;13.40;;;;;;;21.90;87.79;100669.91;4997702;28;20458;-56
2021/07/27 09:30:59;;;;;;;30.57;16.67;;;;;;;21.95;87.67;100668.13;4997361;28;20873;-59
2021/07/27 09:33:30;;;;;;;19.77;12.73;;;;;;;21.96;85.83;100662.84;4997313;28;20463;-58
2021/07/27 09:35:58;;;;;;;17.77;8.70;;;;;;;21.96;86.08;100660.22;4997758;28;20493;-59
2021/07/27 09:38:29;;;;;;;14.33;8.70;;;;;;;21.89;85.62;100658.53;4997202;28;20457;-59
2021/07/27 09:41:00;;;;;;;38.50;20.07;;;;;;;22.12;84.95;100660.13;4997410;28;20478;-58
2021/07/27 09:43:45;;;;;;;21.47;11.00;;;;;;;22.15;85.54;100660.09;5000032;28;20894;-57
2021/07/27 09:46:12;;;;;;;29.10;15.27;;;;;;;22.08;85.18;100653.13;4999672;28;20536;-59
2021/07/27 09:48:42;;;;;;;12.30;8.10;;;;;;;22.20;85.74;100652.19;4997068;28;20468;-55
2021/07/27 09:51:10;;;;;;;28.43;15.70;;;;;;;22.42;85.46;100662.50;4997145;28;20575;-60
2021/07/27 09:53:38;;;;;;;13.07;9.30;;;;;;;22.48;86.04;100658.06;4997508;28;20517;-57
2021/07/27 09:56:08;;;;;;;50.97;21.17;;;;;;;22.37;85.13;100654.66;4996470;28;20459;-58
2021/07/27 09:58:35;;;;;;;19.13;10.23;;;;;;;22.67;83.70;100652.66;4996721;28;20470;-59
2021/07/27 10:01:06;;;;;;;63.07;30.03;;;;;;;23.14;81.41;100652.13;4996932;28;20573;-60
2021/07/27 10:03:36;;;;;;;23.53;14.53;;;;;;;23.07;79.25;100651.31;4999781;28;20550;-60
2021/07/27 10:06:05;;;;;;;27.13;16.37;;;;;;;23.19;78.74;100651.19;4997009;28;20465;-59
2021/07/27 10:08:34;;;;;;;14.27;9.10;;;;;;;22.91;79.50;100650.63;4996547;28;20457;-59
2021/07/27 10:11:09;;;;;;;14.87;7.00;;;;;;;23.04;81.53;100649.63;5007460;28;20493;-57
2021/07/27 10:13:38;;;;;;;21.03;12.27;;;;;;;22.60;81.56;100653.63;5016520;28;20484;-59
2021/07/27 10:16:05;;;;;;;52.97;22.30;;;;;;;22.58;83.51;100656.25;5016375;28;20473;-59
2021/07/27 10:18:34;;;;;;;21.97;11.20;;;;;;;22.11;87.64;100667.13;5016486;28;20515;-59
2021/07/27 10:21:24;;;;;;;20.23;12.63;;;;;;;21.95;89.22;100676.00;5016423;28;20998;-57
2021/07/27 10:23:53;;;;;;;22.27;11.23;;;;;;;21.90;90.51;100678.69;5016795;28;20457;-58
2021/07/27 10:26:28;;;;;;;34.57;18.10;;;;;;;21.91;88.63;100676.91;5014722;28;20457;-59
2021/07/27 10:28:56;;;;;;;45.43;26.83;;;;;;;21.93;87.91;100681.25;5016123;28;20463;-59
2021/07/27 10:31:33;;;;;;;15.77;10.30;;;;;;;22.01;88.03;100682.97;5015880;28;20485;-60
2021/07/27 10:34:02;;;;;;;61.73;26.60;;;;;;;22.01;84.83;100673.34;5016100;28;20461;-59
2021/07/27 10:36:33;;;;;;;24.13;13.97;;;;;;;22.16;85.79;100671.47;5001657;28;20528;-59
2021/07/27 10:39:15;;;;;;;16.67;10.70;;;;;;;22.21;84.34;100675.78;4994060;28;20497;-59
2021/07/27 10:41:44;;;;;;;16.63;11.03;;;;;;;22.54;85.19;100674.72;4994646;28;20478;-59
2021/07/27 10:44:13;;;;;;;16.43;9.70;;;;;;;22.79;85.21;100668.31;4995665;28;20581;-59
2021/07/27 10:46:43;;;;;;;33.30;18.80;;;;;;;23.05;83.27;100668.91;4993550;28;20458;-58
2021/07/27 10:49:16;;;;;;;35.70;20.50;;;;;;;22.92;81.37;100666.41;4996029;28;20490;-59
2021/07/27 10:51:47;;;;;;;21.73;12.63;;;;;;;23.04;81.97;100668.03;4994183;28;20490;-59
2021/07/27 10:54:16;;;;;;;14.63;9.77;;;;;;;22.99;83.16;100664.59;4995957;28;20490;-59
2021/07/27 10:56:58;;;;;;;17.87;12.30;;;;;;;23.14;81.40;100657.41;4993909;28;20541;-59
2021/07/27 10:59:26;;;;;;;14.33;9.80;;;;;;;23.07;80.52;100653.97;4996262;28;20470;-59
2021/07/27 11:01:54;;;;;;;37.73;18.47;;;;;;;23.30;80.37;100660.69;4993714;28;20478;-59
2021/07/27 11:04:27;;;;;;;16.13;11.20;;;;;;;23.12;81.43;100653.91;4995171;28;20490;-58
2021/07/27 11:07:07;;;;;;;20.40;13.10;;;;;;;23.17;82.16;100652.13;4992585;28;20460;-58
2021/07/27 11:09:35;;;;;;;25.33;12.77;;;;;;;23.11;81.46;100652.19;4996215;28;20496;-59
2021/07/27 11:12:02;;;;;;;26.97;17.23;;;;;;;23.02;81.27;100656.66;5012596;28;20485;-59
2021/07/27 11:14:30;;;;;;;15.30;9.73;;;;;;;22.84;83.55;100664.75;5015441;28;20457;-58
2021/07/27 11:16:58;;;;;;;21.90;12.20;;;;;;;22.76;81.74;100656.97;5012698;28;20473;-58
2021/07/27 11:19:27;;;;;;;18.00;11.47;;;;;;;22.82;80.38;100656.00;4995902;28;20470;-59
2021/07/27 11:21:57;;;;;;;22.60;13.23;;;;;;;22.81;79.24;100651.66;4989856;28;20478;-60
2021/07/27 11:24:25;;;;;;;16.40;10.80;;;;;;;22.87;80.03;100651.56;4995289;28;20539;-59
2021/07/27 11:26:53;;;;;;;23.57;13.47;;;;;;;22.97;79.40;100650.56;4989360;28;20454;-59
2021/07/27 11:29:21;;;;;;;29.90;16.07;;;;;;;23.14;78.44;100655.66;4995870;28;20450;-58